This is the latest recevied weather packets stored in our database for station/object WI0K. If no packets are shown the sender has not sent any weather packets the latest 10 day(s).
| Time | Temp. | Humidity | Pressure | Rain* | Wind** | Luminosity | Snow |
|---|---|---|---|---|---|---|---|
| 1777644349 | 6.11° C | 69% | 1021.2 hPa | 0 mm | - | 347 W/m² | - |
| 1777644048 | 5.56° C | 72% | 1021.2 hPa | 0 mm | - | 327 W/m² | - |
| 1777643748 | 5.56° C | 73% | 1021.2 hPa | 0 mm | - | 312 W/m² | - |
| 1777643447 | 5° C | 75% | 1021.2 hPa | 0 mm | - | 291 W/m² | - |
| 1777643146 | 5° C | 76% | 1021.1 hPa | 0 mm | - | 277 W/m² | - |
| 1777642846 | 5° C | 76% | 1021.1 hPa | 0 mm | - | 259 W/m² | - |
| 1777642545 | 5° C | 77% | 1021.1 hPa | 0 mm | - | 238 W/m² | - |
| 1777642244 | 4.44° C | 77% | 1021.1 hPa | 0 mm | - | 224 W/m² | - |
| 1777641944 | 4.44° C | 78% | 1021.1 hPa | 0 mm | - | 207 W/m² | - |
| 1777641643 | 4.44° C | 79% | 1021 hPa | 0 mm | - | 190 W/m² | - |
| 1777641342 | 4.44° C | 78% | 1021 hPa | 0 mm | - | 172 W/m² | - |
| 1777641042 | 3.33° C | 80% | 1021 hPa | 0 mm | - | 157 W/m² | - |
| 1777640741 | 2.78° C | 84% | 1021 hPa | 0 mm | - | 141 W/m² | - |
| 1777640440 | 2.22° C | 88% | 1020.9 hPa | 0 mm | - | 126 W/m² | - |
| 1777640140 | 1.67° C | 90% | 1020.8 hPa | 0 mm | - | 67 W/m² | - |
| 1777639839 | 1.67° C | 90% | 1020.8 hPa | 0 mm | - | 47 W/m² | - |
| 1777639538 | 1.67° C | 90% | 1020.7 hPa | 0 mm | - | 45 W/m² | - |
| 1777639237 | 1.11° C | 91% | 1020.5 hPa | 0 mm | - | 41 W/m² | - |
| 1777638937 | 1.11° C | 91% | 1020.5 hPa | 0 mm | - | 36 W/m² | - |
| 1777638636 | 1.11° C | 91% | 1020.5 hPa | 0 mm | - | 30 W/m² | - |
| 1777638335 | 1.11° C | 92% | 1020.4 hPa | 0 mm | - | 25 W/m² | - |
| 1777638035 | 1.11° C | 92% | 1020.4 hPa | 0 mm | - | 20 W/m² | - |
| 1777637734 | 1.11° C | 93% | 1020.5 hPa | 0 mm | - | 15 W/m² | - |
| 1777637433 | 1.11° C | 93% | 833.2 hPa | 0 mm | - | 11 W/m² | - |
| 1777637133 | 1.11° C | 93% | 833.1 hPa | 0 mm | - | 8 W/m² | - |
* Rain latest hour (hover to see other rain measurements)
** Current wind speed in m/s (hover to see current wind gust speed)